createdAt,value
2023-10-21T00:01:08.958Z,72516.50
2023-10-21T00:03:35.635Z,72510.28
2023-10-21T00:06:02.359Z,72510.28
2023-10-21T00:08:29.436Z,72510.28
2023-10-21T00:11:06.026Z,72516.50
2023-10-21T00:13:33.646Z,72514.44
2023-10-21T00:16:00.280Z,72518.56
2023-10-21T00:18:27.363Z,72518.56
2023-10-21T00:20:55.444Z,72522.69
2023-10-21T00:23:23.143Z,72524.75
2023-10-21T00:25:49.820Z,72522.69
2023-10-21T00:28:16.560Z,72516.50
2023-10-21T00:30:46.915Z,72502.03
2023-10-21T00:33:15.289Z,72504.09
2023-10-21T00:35:46.002Z,72504.09
2023-10-21T00:38:13.237Z,72493.78
2023-10-21T00:40:39.985Z,72493.78
2023-10-21T00:43:06.557Z,72502.03
2023-10-21T00:45:33.122Z,72502.03
2023-10-21T00:47:59.907Z,72493.78
2023-10-21T00:50:26.624Z,72491.69
2023-10-21T00:52:53.771Z,72483.44
2023-10-21T00:55:20.417Z,72468.97
2023-10-21T00:57:47.681Z,72462.78
2023-10-21T01:00:15.133Z,72460.72
2023-10-21T01:02:43.673Z,72460.72
2023-10-21T01:05:10.639Z,72471.03
2023-10-21T01:07:37.226Z,72477.25
2023-10-21T01:10:08.915Z,72471.03
2023-10-21T01:12:35.472Z,72468.97
2023-10-21T01:15:02.206Z,72468.97
2023-10-21T01:17:28.747Z,72481.38
2023-10-21T01:19:58.850Z,72481.38
2023-10-21T01:22:25.401Z,72502.03
2023-10-21T01:24:52.675Z,72510.28
2023-10-21T01:27:19.302Z,72526.81
2023-10-21T01:29:45.883Z,72530.97
2023-10-21T01:32:12.397Z,72537.16
2023-10-21T01:34:39.000Z,72545.41
2023-10-21T01:37:05.755Z,72555.75
2023-10-21T01:39:33.589Z,72568.16
2023-10-21T01:42:00.334Z,72576.41
2023-10-21T01:44:26.954Z,72580.53
2023-10-21T01:46:53.475Z,72588.81
2023-10-21T01:49:20.052Z,72590.88
2023-10-21T01:51:46.579Z,72595.00
2023-10-21T01:54:13.132Z,72588.81
2023-10-21T01:56:39.747Z,72597.06
2023-10-21T01:59:07.612Z,72611.53
2023-10-21T02:01:34.304Z,72626.00
2023-10-21T02:04:00.943Z,72646.66
2023-10-21T02:06:27.586Z,72661.13
2023-10-21T02:08:54.788Z,72667.31
2023-10-21T02:11:23.328Z,72671.44
2023-10-21T02:13:49.848Z,72677.66
2023-10-21T02:16:16.510Z,72692.09
2023-10-21T02:18:43.383Z,72716.91
2023-10-21T02:21:10.469Z,72716.91
2023-10-21T02:23:37.189Z,72725.16
2023-10-21T02:26:05.246Z,72745.84
2023-10-21T02:28:32.340Z,72747.91
2023-10-21T02:31:02.548Z,72754.09
2023-10-21T02:33:29.216Z,72776.81
2023-10-21T02:35:56.790Z,72785.09
2023-10-21T02:38:24.136Z,72787.16
2023-10-21T02:40:50.810Z,72793.34
2023-10-21T02:43:18.212Z,72791.28
2023-10-21T02:45:44.861Z,72795.41
2023-10-21T02:48:11.527Z,72801.63
2023-10-21T02:50:38.124Z,72809.88
2023-10-21T02:53:04.787Z,72832.59
2023-10-21T02:55:31.392Z,72832.59
2023-10-21T02:57:58.071Z,72836.75
2023-10-21T03:00:24.740Z,72845.00
2023-10-21T03:02:51.522Z,72853.28
2023-10-21T03:05:19.426Z,72857.41
2023-10-21T03:07:45.998Z,72863.59
2023-10-21T03:10:12.637Z,72869.81
2023-10-21T03:12:40.767Z,72869.81
2023-10-21T03:15:08.789Z,72878.06
2023-10-21T03:17:35.415Z,72890.47
2023-10-21T03:20:01.943Z,72913.19
2023-10-21T03:22:28.450Z,72925.59
2023-10-21T03:24:55.012Z,72940.06
2023-10-21T03:27:21.958Z,72944.19
2023-10-21T03:29:48.825Z,72952.44
2023-10-21T03:32:15.483Z,72954.50
2023-10-21T03:34:42.118Z,72966.91
2023-10-21T03:37:08.797Z,72962.78
2023-10-21T03:39:35.374Z,72960.72
2023-10-21T03:42:02.000Z,72964.84
2023-10-21T03:44:29.842Z,72960.72
2023-10-21T03:46:56.565Z,72968.97
2023-10-21T03:49:23.156Z,72975.19
2023-10-21T03:51:49.703Z,72981.38
2023-10-21T03:54:16.334Z,73010.31
2023-10-21T03:56:43.179Z,73014.44
2023-10-21T03:59:09.794Z,73014.44
2023-10-21T04:01:36.326Z,73014.44
2023-10-21T04:04:02.991Z,73012.38
2023-10-21T04:06:29.623Z,73020.63
2023-10-21T04:08:56.203Z,73047.50
2023-10-21T04:11:22.883Z,73047.50
2023-10-21T04:13:49.504Z,73047.50
2023-10-21T04:16:16.178Z,73043.38
2023-10-21T04:18:42.839Z,73051.63
2023-10-21T04:21:09.726Z,73061.97
2023-10-21T04:23:38.010Z,73064.03
2023-10-21T04:26:06.078Z,73080.56
2023-10-21T04:28:32.817Z,73088.81
2023-10-21T04:30:59.513Z,73088.81
2023-10-21T04:33:27.297Z,73084.69
2023-10-21T04:35:54.014Z,73076.44
2023-10-21T04:38:20.556Z,73072.28
2023-10-21T04:40:47.377Z,73076.44
2023-10-21T04:43:14.146Z,73084.69
2023-10-21T04:45:40.665Z,73086.75
2023-10-21T04:48:07.778Z,73095.03
2023-10-21T04:50:34.439Z,73099.16
2023-10-21T04:53:01.230Z,73101.22
2023-10-21T04:55:27.834Z,73105.34
2023-10-21T04:57:54.397Z,73109.50
2023-10-21T05:00:20.985Z,73103.28
2023-10-21T05:02:47.737Z,73105.34
2023-10-21T05:05:14.397Z,73111.56
2023-10-21T05:07:41.126Z,73111.56
2023-10-21T05:10:08.208Z,73126.03
2023-10-21T05:12:35.598Z,73134.28
2023-10-21T05:15:03.174Z,73130.16
2023-10-21T05:17:30.008Z,73138.41
2023-10-21T05:19:56.613Z,73140.47
2023-10-21T05:22:23.148Z,73150.81
2023-10-21T05:24:49.752Z,73154.94
2023-10-21T05:27:16.964Z,73163.22
2023-10-21T05:29:43.603Z,73175.63
2023-10-21T05:32:10.294Z,73173.53
2023-10-21T05:34:36.985Z,73185.94
2023-10-21T05:37:04.327Z,73177.69
2023-10-21T05:39:30.910Z,73192.16
2023-10-21T05:41:57.460Z,73204.53
2023-10-21T05:44:33.858Z,73198.34
2023-10-21T05:47:10.597Z,73190.06
2023-10-21T05:49:37.210Z,73167.34
2023-10-21T05:52:03.892Z,73161.16
2023-10-21T05:54:33.459Z,73150.81
2023-10-21T05:57:00.078Z,73138.41
2023-10-21T05:59:26.845Z,73138.41
2023-10-21T06:01:53.413Z,73128.09
2023-10-21T06:04:20.097Z,73113.63
2023-10-21T06:06:46.895Z,73105.34
2023-10-21T06:09:14.191Z,73101.22
2023-10-21T06:11:40.836Z,73117.75
2023-10-21T06:14:07.624Z,73121.88
2023-10-21T06:16:34.680Z,73109.50
2023-10-21T06:19:01.279Z,73101.22
2023-10-21T06:21:27.916Z,73109.50
2023-10-21T06:23:54.673Z,73105.34
2023-10-21T06:26:21.256Z,73101.22
2023-10-21T06:28:47.760Z,73103.28
2023-10-21T06:31:14.446Z,73109.50
2023-10-21T06:33:41.094Z,73107.41
2023-10-21T06:36:09.264Z,73107.41
2023-10-21T06:38:36.222Z,73101.22
2023-10-21T06:41:13.306Z,73095.03
2023-10-21T06:43:41.668Z,73090.91
2023-10-21T06:46:09.032Z,73084.69
2023-10-21T06:48:35.684Z,73080.56
2023-10-21T06:51:02.454Z,73084.69
2023-10-21T06:53:29.070Z,73076.44
2023-10-21T06:55:55.634Z,73070.22
2023-10-21T06:58:22.215Z,73055.75
2023-10-21T07:00:48.936Z,73053.69
2023-10-21T07:03:15.568Z,73047.50
2023-10-21T07:05:42.352Z,73047.50
2023-10-21T07:08:09.105Z,73039.22
2023-10-21T07:10:35.787Z,73039.22
2023-10-21T07:13:03.254Z,73030.97
2023-10-21T07:15:30.830Z,73022.69
2023-10-21T07:17:59.244Z,73022.69
2023-10-21T07:20:27.352Z,73028.91
2023-10-21T07:22:54.665Z,73026.84
2023-10-21T07:25:21.715Z,73030.97
2023-10-21T07:27:48.617Z,73030.97
2023-10-21T07:30:16.200Z,73024.78
2023-10-21T07:32:43.055Z,73022.69
2023-10-21T07:35:10.668Z,73016.50
2023-10-21T07:37:38.653Z,73002.03
2023-10-21T07:40:06.977Z,72993.78
2023-10-21T07:42:33.744Z,72997.91
2023-10-21T07:45:00.603Z,72999.97
2023-10-21T07:47:27.286Z,72993.78
2023-10-21T07:49:56.254Z,72989.66
2023-10-21T07:52:23.697Z,72997.91
2023-10-21T07:54:50.354Z,72989.66
2023-10-21T07:57:17.143Z,72981.38
2023-10-21T07:59:44.385Z,72973.13
2023-10-21T08:02:11.466Z,72975.19
2023-10-21T08:04:38.385Z,72964.84
2023-10-21T08:07:05.211Z,72960.72
2023-10-21T08:09:32.214Z,72954.50
2023-10-21T08:11:59.097Z,72956.59
2023-10-21T08:14:28.502Z,72952.44
2023-10-21T08:16:55.071Z,72960.72
2023-10-21T08:19:21.932Z,72964.84
2023-10-21T08:21:48.506Z,72973.13
2023-10-21T08:24:15.145Z,72973.13
2023-10-21T08:26:42.053Z,72962.78
2023-10-21T08:29:11.516Z,72962.78
2023-10-21T08:31:38.246Z,72968.97
2023-10-21T08:34:06.362Z,72964.84
2023-10-21T08:36:33.589Z,72960.72
2023-10-21T08:39:00.243Z,72958.66
2023-10-21T08:41:35.679Z,72960.72
2023-10-21T08:44:02.439Z,72962.78
2023-10-21T08:46:31.837Z,72956.59
2023-10-21T08:48:59.994Z,72948.31
2023-10-21T08:51:27.446Z,72940.06
2023-10-21T08:53:55.884Z,72935.91
2023-10-21T08:56:23.564Z,72923.53
2023-10-21T08:58:50.167Z,72935.91
2023-10-21T09:01:16.902Z,72915.25
2023-10-21T09:03:44.214Z,72904.94
2023-10-21T09:06:12.384Z,72878.06
2023-10-21T09:08:43.938Z,72865.66
2023-10-21T09:11:14.980Z,72853.28
2023-10-21T09:13:42.801Z,72849.13
2023-10-21T09:16:23.048Z,72857.41
2023-10-21T09:19:06.083Z,72869.81
2023-10-21T09:21:42.191Z,72884.25
2023-10-21T09:24:11.503Z,72911.13
2023-10-21T09:26:49.457Z,72915.25
2023-10-21T09:29:19.674Z,72925.59
2023-10-21T09:31:57.060Z,72927.66
2023-10-21T09:34:31.640Z,72940.06
2023-10-21T09:37:03.155Z,72950.38
2023-10-21T09:39:35.921Z,72927.66
2023-10-21T09:42:04.130Z,72923.53
2023-10-21T09:44:31.438Z,72923.53
2023-10-21T09:46:59.897Z,72911.13
2023-10-21T09:49:29.042Z,72900.78
2023-10-21T09:52:06.450Z,72857.41
2023-10-21T09:54:43.675Z,72809.88
2023-10-21T09:57:12.709Z,72826.41
2023-10-21T09:59:40.628Z,72826.41
2023-10-21T10:02:10.941Z,72824.34
2023-10-21T10:04:39.561Z,72799.56
2023-10-21T10:07:14.582Z,72797.47
2023-10-21T10:09:47.135Z,72778.88
2023-10-21T10:12:24.486Z,72770.63
2023-10-21T10:14:51.446Z,72758.22
2023-10-21T10:17:51.900Z,72770.63
2023-10-21T10:20:23.389Z,72766.50
2023-10-21T10:23:09.808Z,72762.34
2023-10-21T10:25:43.360Z,72762.34
2023-10-21T10:28:18.608Z,72787.16
2023-10-21T10:30:46.477Z,72783.03
2023-10-21T10:33:17.578Z,72778.88
2023-10-21T10:35:48.401Z,72783.03
2023-10-21T10:38:26.986Z,72787.16
2023-10-21T10:41:16.714Z,72787.16
2023-10-21T10:43:47.963Z,72778.88
2023-10-21T10:46:21.727Z,72799.56
2023-10-21T10:48:48.679Z,72811.94
2023-10-21T10:51:16.709Z,72828.47
2023-10-21T10:53:48.251Z,72834.69
2023-10-21T10:56:21.106Z,72824.34
2023-10-21T10:58:48.828Z,72811.94
2023-10-21T11:01:26.709Z,72816.06
2023-10-21T11:04:02.235Z,72811.94
2023-10-21T11:06:32.837Z,72809.88
2023-10-21T11:09:00.287Z,72791.28
2023-10-21T11:11:28.787Z,72780.97
2023-10-21T11:13:56.592Z,72776.81
2023-10-21T11:16:23.734Z,72780.97
2023-10-21T11:18:50.704Z,72795.41
2023-10-21T11:21:17.346Z,72807.81
2023-10-21T11:23:45.082Z,72799.56
2023-10-21T11:26:12.415Z,72797.47
2023-10-21T11:28:39.362Z,72803.69
2023-10-21T11:31:09.598Z,72789.22
2023-10-21T11:33:36.538Z,72787.16
2023-10-21T11:36:04.757Z,72785.09
2023-10-21T11:38:31.492Z,72793.34
2023-10-21T11:40:58.107Z,72799.56
2023-10-21T11:43:29.034Z,72795.41
2023-10-21T11:45:57.027Z,72791.28
2023-10-21T11:48:25.681Z,72801.63
2023-10-21T11:50:52.780Z,72803.69
2023-10-21T11:53:20.495Z,72828.47
2023-10-21T11:55:53.056Z,72811.94
2023-10-21T11:58:36.219Z,72816.06
2023-10-21T12:01:14.633Z,72814.00
2023-10-21T12:03:59.920Z,72838.81
2023-10-21T12:06:45.552Z,72832.59
2023-10-21T12:09:38.273Z,72828.47
2023-10-21T12:12:39.922Z,72811.94
2023-10-21T12:15:06.999Z,72807.81
2023-10-21T12:17:42.342Z,72816.06
2023-10-21T12:20:45.304Z,72803.69
2023-10-21T12:23:31.803Z,72793.34
2023-10-21T12:26:24.553Z,72805.75
2023-10-21T12:29:02.837Z,72791.28
2023-10-21T12:31:48.105Z,72785.09
2023-10-21T12:34:17.274Z,72791.28
2023-10-21T12:36:55.726Z,72783.03
2023-10-21T12:39:22.373Z,72783.03
2023-10-21T12:41:54.973Z,72793.34
2023-10-21T12:44:28.676Z,72783.03
2023-10-21T12:46:59.219Z,72778.88
2023-10-21T12:49:28.058Z,72783.03
2023-10-21T12:51:56.047Z,72787.16
2023-10-21T12:54:23.300Z,72795.41
2023-10-21T12:56:51.338Z,72791.28
2023-10-21T12:59:18.194Z,72780.97
2023-10-21T13:01:44.899Z,72776.81
2023-10-21T13:04:11.782Z,72776.81
2023-10-21T13:06:39.610Z,72774.75
2023-10-21T13:09:22.714Z,72772.69
2023-10-21T13:11:50.951Z,72791.28
2023-10-21T13:14:22.404Z,72807.81
2023-10-21T13:16:49.379Z,72826.41
2023-10-21T13:19:15.981Z,72822.28
2023-10-21T13:21:42.996Z,72824.34
2023-10-21T13:24:10.037Z,72818.16
2023-10-21T13:26:36.811Z,72814.00
2023-10-21T13:29:05.788Z,72840.88
2023-10-21T13:31:32.812Z,72828.47
2023-10-21T13:33:59.437Z,72836.75
2023-10-21T13:36:26.067Z,72847.06
2023-10-21T13:38:52.596Z,72853.28
2023-10-21T13:41:20.534Z,72855.34
2023-10-21T13:43:47.165Z,72871.88
2023-10-21T13:46:13.827Z,72878.06
2023-10-21T13:48:40.477Z,72865.66
2023-10-21T13:51:10.564Z,72853.28
2023-10-21T13:53:37.187Z,72853.28
2023-10-21T13:56:07.689Z,72857.41
2023-10-21T13:58:34.527Z,72861.53
2023-10-21T14:01:01.368Z,72871.88
2023-10-21T14:03:28.245Z,72869.81
2023-10-21T14:06:05.970Z,72873.94
2023-10-21T14:08:33.847Z,72888.41
2023-10-21T14:11:06.880Z,72909.06
2023-10-21T14:13:35.155Z,72923.53
2023-10-21T14:16:06.485Z,72923.53
2023-10-21T14:18:33.812Z,72927.66
2023-10-21T14:21:00.530Z,72913.19
2023-10-21T14:23:28.488Z,72915.25
2023-10-21T14:25:57.730Z,72902.84
2023-10-21T14:28:27.678Z,72890.47
2023-10-21T14:30:59.307Z,72890.47
2023-10-21T14:33:31.549Z,72890.47
2023-10-21T14:36:00.015Z,72884.25
2023-10-21T14:38:27.654Z,72890.47
2023-10-21T14:40:54.534Z,72890.47
2023-10-21T14:43:23.038Z,72890.47
2023-10-21T14:45:51.389Z,72902.84
2023-10-21T14:48:21.073Z,72911.13
2023-10-21T14:50:51.930Z,72917.31
2023-10-21T14:53:19.198Z,72921.47
2023-10-21T14:55:53.323Z,72931.78
2023-10-21T14:58:25.340Z,72942.13
2023-10-21T15:00:53.753Z,72954.50
2023-10-21T15:03:21.896Z,72973.13
2023-10-21T15:05:49.946Z,72985.50
2023-10-21T15:08:26.808Z,73008.25
2023-10-21T15:10:54.221Z,73033.03
2023-10-21T15:13:24.821Z,73057.84
2023-10-21T15:15:59.474Z,73076.44
2023-10-21T15:18:26.052Z,73126.03
2023-10-21T15:20:52.641Z,73169.41
2023-10-21T15:23:19.193Z,73198.34
2023-10-21T15:25:47.101Z,73214.88
2023-10-21T15:28:13.694Z,73233.47
2023-10-21T15:30:40.287Z,73243.81
2023-10-21T15:33:06.935Z,73276.88
2023-10-21T15:35:34.441Z,73293.41
2023-10-21T15:38:01.169Z,73312.00
2023-10-21T15:40:28.754Z,73340.94
2023-10-21T15:42:57.461Z,73386.38
2023-10-21T15:45:24.141Z,73404.97
2023-10-21T15:47:50.785Z,73442.19
2023-10-21T15:50:17.736Z,73469.03
2023-10-21T15:52:46.243Z,73477.31
2023-10-21T15:55:12.795Z,73477.31
2023-10-21T15:57:39.748Z,73491.78
2023-10-21T16:00:13.107Z,73506.25
2023-10-21T16:02:40.988Z,73533.09
2023-10-21T16:05:08.279Z,73549.63
2023-10-21T16:07:46.393Z,73553.78
2023-10-21T16:10:21.347Z,73559.97
2023-10-21T16:12:47.928Z,73559.97
2023-10-21T16:15:14.752Z,73564.09
2023-10-21T16:17:41.796Z,73576.50
2023-10-21T16:20:09.168Z,73593.03
2023-10-21T16:22:38.067Z,73613.72
2023-10-21T16:25:05.268Z,73636.44
2023-10-21T16:27:31.929Z,73675.69
2023-10-21T16:29:58.692Z,73710.84
2023-10-21T16:32:25.334Z,73725.31
2023-10-21T16:34:52.926Z,73721.16
2023-10-21T16:37:20.049Z,73710.84
2023-10-21T16:39:46.765Z,73700.50
2023-10-21T16:42:13.517Z,73696.38
2023-10-21T16:44:40.789Z,73694.31
2023-10-21T16:47:07.330Z,73708.78
2023-10-21T16:49:33.865Z,73712.91
2023-10-21T16:52:00.413Z,73710.84
2023-10-21T16:54:28.352Z,73725.31
2023-10-21T16:56:55.924Z,73745.97
2023-10-21T16:59:22.445Z,73754.25
2023-10-21T17:01:49.334Z,73754.25
2023-10-21T17:04:17.116Z,73772.84
2023-10-21T17:06:44.058Z,73770.78
2023-10-21T17:09:10.919Z,73783.16
2023-10-21T17:11:38.099Z,73795.56
2023-10-21T17:14:05.552Z,73812.09
2023-10-21T17:16:33.020Z,73845.16
2023-10-21T17:19:00.127Z,73861.69
2023-10-21T17:21:27.359Z,73853.44
2023-10-21T17:23:54.778Z,73857.56
2023-10-21T17:26:22.823Z,73861.69
2023-10-21T17:28:49.520Z,73865.84
2023-10-21T17:31:16.472Z,73876.16
2023-10-21T17:33:49.972Z,73900.97
2023-10-21T17:36:17.406Z,73907.16
2023-10-21T17:38:43.989Z,73903.03
2023-10-21T17:41:10.591Z,73915.44
2023-10-21T17:43:37.289Z,73917.50
2023-10-21T17:46:05.595Z,73919.56
2023-10-21T17:48:32.911Z,73919.56
2023-10-21T17:50:59.797Z,73923.72
2023-10-21T17:53:26.501Z,73931.97
2023-10-21T17:55:53.100Z,73923.72
2023-10-21T17:58:19.643Z,73919.56
2023-10-21T18:00:46.326Z,73919.56
2023-10-21T18:03:13.109Z,73923.72
2023-10-21T18:05:39.810Z,73923.72
2023-10-21T18:08:07.530Z,73923.72
2023-10-21T18:10:34.100Z,73927.84
2023-10-21T18:13:00.652Z,73952.63
2023-10-21T18:15:27.547Z,73956.78
2023-10-21T18:17:54.276Z,73965.03
2023-10-21T18:20:23.139Z,73960.91
2023-10-21T18:22:50.000Z,73956.78
2023-10-21T18:25:19.030Z,73948.50
2023-10-21T18:27:45.724Z,73942.31
2023-10-21T18:30:13.903Z,73936.09
2023-10-21T18:32:40.799Z,73934.03
2023-10-21T18:35:07.872Z,73931.97
2023-10-21T18:37:34.446Z,73936.09
2023-10-21T18:40:01.229Z,73934.03
2023-10-21T18:42:28.050Z,73938.19
2023-10-21T18:44:55.620Z,73936.09
2023-10-21T18:47:22.200Z,73931.97
2023-10-21T18:49:48.950Z,73929.91
2023-10-21T18:52:17.497Z,73919.56
2023-10-21T18:54:45.232Z,73925.78
2023-10-21T18:57:11.962Z,73925.78
2023-10-21T18:59:38.699Z,73927.84
2023-10-21T19:02:05.420Z,73934.03
2023-10-21T19:04:35.184Z,73948.50
2023-10-21T19:07:01.958Z,73950.56
2023-10-21T19:09:28.553Z,73944.38
2023-10-21T19:11:55.221Z,73946.44
2023-10-21T19:14:21.781Z,73915.44
2023-10-21T19:16:48.564Z,73927.84
2023-10-21T19:19:15.564Z,73923.72
2023-10-21T19:21:42.976Z,73929.91
2023-10-21T19:24:09.774Z,73925.78
2023-10-21T19:26:36.376Z,73934.03
2023-10-21T19:29:02.952Z,73934.03
2023-10-21T19:31:30.090Z,73931.97
2023-10-21T19:33:56.808Z,73940.25
2023-10-21T19:36:23.820Z,73948.50
2023-10-21T19:38:52.198Z,73940.25
2023-10-21T19:41:19.202Z,73938.19
2023-10-21T19:43:47.587Z,73942.31
2023-10-21T19:46:14.536Z,73942.31
2023-10-21T19:48:41.325Z,73948.50
2023-10-21T19:51:11.468Z,73948.50
2023-10-21T19:53:38.898Z,73956.78
2023-10-21T19:56:06.286Z,73981.56
2023-10-21T19:58:33.085Z,73987.78
2023-10-21T20:01:07.413Z,73975.38
2023-10-21T20:03:35.634Z,73975.38
2023-10-21T20:06:03.402Z,73965.03
2023-10-21T20:08:30.469Z,73971.25
2023-10-21T20:11:05.216Z,73969.19
2023-10-21T20:13:32.221Z,73973.31
2023-10-21T20:15:58.962Z,73965.03
2023-10-21T20:18:25.608Z,73977.44
2023-10-21T20:20:52.389Z,73971.25
2023-10-21T20:23:19.228Z,73962.97
2023-10-21T20:25:45.861Z,73965.03
2023-10-21T20:28:12.617Z,73969.19
2023-10-21T20:30:39.604Z,73979.50
2023-10-21T20:33:06.414Z,73973.31
2023-10-21T20:35:35.978Z,73973.31
2023-10-21T20:38:05.067Z,73981.56
2023-10-21T20:40:32.516Z,73981.56
2023-10-21T20:42:59.291Z,73987.78
2023-10-21T20:45:26.019Z,73989.84
2023-10-21T20:47:52.635Z,74002.25
2023-10-21T20:50:20.280Z,74012.56
2023-10-21T20:52:47.978Z,74000.19
2023-10-21T20:55:15.429Z,73989.84
2023-10-21T20:57:42.442Z,73991.91
2023-10-21T21:00:12.477Z,74014.66
2023-10-21T21:02:40.582Z,74022.91
2023-10-21T21:05:15.397Z,74031.19
2023-10-21T21:07:52.762Z,74035.31
2023-10-21T21:10:21.463Z,74035.31
2023-10-21T21:12:50.121Z,74018.78
2023-10-21T21:15:16.892Z,73981.56
2023-10-21T21:17:43.554Z,73950.56
2023-10-21T21:20:10.386Z,73929.91
2023-10-21T21:22:37.037Z,73929.91
2023-10-21T21:25:04.066Z,73925.78
2023-10-21T21:27:30.923Z,73923.72
2023-10-21T21:29:57.484Z,73921.63
2023-10-21T21:32:24.288Z,73925.78
2023-10-21T21:34:53.040Z,73923.72
2023-10-21T21:37:19.683Z,73911.31
2023-10-21T21:39:47.302Z,73903.03
2023-10-21T21:42:16.081Z,73880.31
2023-10-21T21:44:42.610Z,73861.69
2023-10-21T21:47:10.135Z,73853.44
2023-10-21T21:49:36.857Z,73851.38
2023-10-21T21:52:03.846Z,73828.63
2023-10-21T21:54:30.476Z,73816.25
2023-10-21T21:56:57.122Z,73816.25
2023-10-21T21:59:23.730Z,73822.44
2023-10-21T22:01:50.404Z,73816.25
2023-10-21T22:04:18.994Z,73820.38
2023-10-21T22:06:45.786Z,73818.31
2023-10-21T22:09:15.141Z,73824.50
2023-10-21T22:11:41.772Z,73828.63
2023-10-21T22:14:08.356Z,73834.84
2023-10-21T22:16:37.348Z,73836.91
2023-10-21T22:19:04.565Z,73851.38
2023-10-21T22:21:31.150Z,73849.31
2023-10-21T22:24:02.148Z,73849.31
2023-10-21T22:26:30.351Z,73855.50
2023-10-21T22:29:04.833Z,73851.38
2023-10-21T22:31:33.020Z,73863.78
2023-10-21T22:33:59.747Z,73863.78
2023-10-21T22:36:26.336Z,73872.03
2023-10-21T22:38:52.929Z,73880.31
2023-10-21T22:41:19.556Z,73884.44
2023-10-21T22:43:46.088Z,73888.56
2023-10-21T22:46:12.693Z,73888.56
2023-10-21T22:48:39.292Z,73890.63
2023-10-21T22:51:06.148Z,73892.69
2023-10-21T22:53:33.284Z,73900.97
2023-10-21T22:55:59.832Z,73898.91
2023-10-21T22:58:26.486Z,73898.91
2023-10-21T23:00:53.932Z,73903.03
2023-10-21T23:03:20.613Z,73905.09
2023-10-21T23:05:50.101Z,73907.16
2023-10-21T23:08:17.512Z,73909.25
2023-10-21T23:10:44.845Z,73911.31
2023-10-21T23:13:12.068Z,73915.44
2023-10-21T23:15:42.849Z,73917.50
2023-10-21T23:18:09.737Z,73919.56
2023-10-21T23:20:44.063Z,73919.56
2023-10-21T23:23:13.069Z,73923.72
2023-10-21T23:25:40.508Z,73925.78
2023-10-21T23:28:07.763Z,73929.91
2023-10-21T23:30:34.363Z,73944.38
2023-10-21T23:33:01.239Z,73942.31
2023-10-21T23:35:27.878Z,73950.56
2023-10-21T23:37:54.995Z,73946.44
2023-10-21T23:40:21.975Z,73944.38
2023-10-21T23:42:49.960Z,73944.38
2023-10-21T23:45:21.294Z,73956.78
2023-10-21T23:47:48.678Z,73958.84
2023-10-21T23:50:16.332Z,73960.91
2023-10-21T23:52:43.398Z,73956.78
2023-10-21T23:55:11.944Z,73960.91
2023-10-21T23:57:39.142Z,73962.97
